Time;durP1;ratioP1;P1;durP2;ratioP2;P2;SDS_P1;SDS_P2;PMS_P1;PMS_P2;Temp;Humidity;BMP_temperature;BMP_pressure;BME280_temperature;BME280_humidity;BME280_pressure;Samples;Min_cycle;Max_cycle;Signal;HPM_P1;HPM_P2
2021/03/13 00:00:39;;;;;;;3.10;2.38;;;20.20;53.50;;;;;;5064608;28;20111;-37
2021/03/13 00:03:05;;;;;;;2.60;2.40;;;20.20;53.50;;;;;;5101005;28;20020;-37
2021/03/13 00:05:32;;;;;;;2.70;2.35;;;20.20;53.50;;;;;;5084504;28;20032;-37
2021/03/13 00:07:58;;;;;;;2.90;2.58;;;20.30;53.70;;;;;;5066377;28;20547;-37
2021/03/13 00:10:26;;;;;;;2.83;2.50;;;20.20;53.60;;;;;;5084215;28;20056;-37
2021/03/13 00:12:53;;;;;;;3.30;2.80;;;20.30;53.60;;;;;;5084187;28;20055;-37
2021/03/13 00:15:19;;;;;;;2.75;2.28;;;20.30;53.60;;;;;;5084278;28;20028;-37
2021/03/13 00:17:46;;;;;;;2.78;2.33;;;20.30;53.40;;;;;;5084097;28;20012;-37
2021/03/13 00:20:14;;;;;;;2.63;2.42;;;20.20;53.40;;;;;;5084096;28;20040;-36
2021/03/13 00:22:40;;;;;;;2.35;2.15;;;20.30;53.40;;;;;;5084025;28;20101;-37
2021/03/13 00:25:07;;;;;;;2.90;2.60;;;20.20;53.30;;;;;;5083763;28;20031;-37
2021/03/13 00:27:45;;;;;;;3.50;2.33;;;20.20;53.20;;;;;;5084145;28;20068;-37
2021/03/13 00:30:19;;;;;;;2.58;2.30;;;20.30;53.30;;;;;;5083920;28;20043;-37
2021/03/13 00:32:46;;;;;;;2.88;2.38;;;20.20;53.20;;;;;;5083986;28;20024;-37
2021/03/13 00:35:12;;;;;;;;;;;20.20;53.20;;;;;;5096761;28;20028;-37
2021/03/13 00:37:39;;;;;;;2.50;2.30;;;20.20;53.30;;;;;;5073568;28;19916;-37
2021/03/13 00:40:06;;;;;;;1.80;1.57;;;20.20;53.20;;;;;;5083612;28;20036;-37
2021/03/13 00:42:32;;;;;;;2.78;2.33;;;20.20;53.20;;;;;;5088694;28;20741;-37
2021/03/13 00:44:59;;;;;;;2.38;2.17;;;20.20;53.30;;;;;;5083587;28;20020;-37
2021/03/13 00:47:25;;;;;;;3.17;2.40;;;20.20;53.20;;;;;;5083691;28;20052;-38
2021/03/13 00:49:51;;;;;;;2.72;2.53;;;20.20;53.20;;;;;;5083692;28;20026;-37
2021/03/13 00:52:17;;;;;;;2.45;2.25;;;20.20;53.20;;;;;;5083485;28;20028;-37
2021/03/13 00:54:44;;;;;;;2.50;2.28;;;20.20;53.20;;;;;;5083425;28;20020;-37
2021/03/13 00:57:10;;;;;;;3.43;2.57;;;20.20;53.30;;;;;;5083652;28;20032;-37
2021/03/13 00:59:36;;;;;;;3.28;2.60;;;20.20;53.30;;;;;;5082730;28;20028;-37
2021/03/13 01:02:03;;;;;;;2.85;2.50;;;20.20;53.30;;;;;;5092503;28;20028;-37
2021/03/13 01:04:29;;;;;;;4.47;2.70;;;20.10;53.70;;;;;;5091361;28;20028;-37
2021/03/13 01:06:55;;;;;;;2.90;2.60;;;20.10;53.10;;;;;;5083455;28;20025;-40
2021/03/13 01:09:21;;;;;;;2.85;2.55;;;20.10;53.10;;;;;;5082942;28;20041;-37
2021/03/13 01:11:47;;;;;;;2.83;2.40;;;20.10;53.10;;;;;;5083084;28;20198;-37
2021/03/13 01:14:14;;;;;;;2.60;2.40;;;20.10;53.10;;;;;;5048084;28;20031;-37
2021/03/13 01:16:40;;;;;;;3.10;2.20;;;20.10;53.20;;;;;;5083068;28;20035;-37
2021/03/13 01:19:06;;;;;;;2.95;2.65;;;20.10;53.10;;;;;;5083074;28;20020;-37
2021/03/13 01:21:32;;;;;;;2.58;2.38;;;20.00;53.20;;;;;;5082880;28;20041;-37
2021/03/13 01:23:58;;;;;;;3.28;2.80;;;20.00;53.10;;;;;;5082810;28;20024;-37
2021/03/13 01:26:25;;;;;;;2.67;2.40;;;20.00;53.20;;;;;;5083020;28;20029;-37
2021/03/13 01:28:51;;;;;;;3.80;2.50;;;20.00;53.20;;;;;;5082576;28;20044;-37
2021/03/13 01:31:17;;;;;;;2.70;2.40;;;20.00;53.20;;;;;;5086262;28;20027;-37
2021/03/13 01:33:43;;;;;;;3.67;2.70;;;20.00;53.20;;;;;;5097528;28;20048;-37
2021/03/13 01:36:10;;;;;;;2.80;2.30;;;20.00;53.30;;;;;;5076536;28;20075;-37
2021/03/13 01:38:36;;;;;;;2.35;2.05;;;20.00;53.60;;;;;;5076895;28;20035;-37
2021/03/13 01:41:02;;;;;;;4.20;2.20;;;20.00;53.70;;;;;;5082700;28;20038;-37
2021/03/13 01:43:32;;;;;;;3.03;2.72;;;19.90;53.70;;;;;;5087886;28;20377;-37
2021/03/13 01:45:58;;;;;;;4.13;3.08;;;20.00;53.80;;;;;;5102577;28;20036;-37
2021/03/13 01:48:30;;;;;;;2.88;2.60;;;19.90;53.60;;;;;;5102760;28;20035;-37
2021/03/13 01:50:56;;;;;;;3.97;2.75;;;19.90;53.60;;;;;;5085291;28;20028;-37
2021/03/13 01:53:22;;;;;;;3.17;2.80;;;19.90;53.60;;;;;;5084351;28;20028;-37
2021/03/13 01:55:49;;;;;;;2.80;2.50;;;19.90;53.60;;;;;;5084344;28;20031;-37
2021/03/13 01:58:15;;;;;;;2.90;2.55;;;19.90;53.70;;;;;;5102531;28;20054;-37
2021/03/13 02:00:41;;;;;;;5.18;2.50;;;19.90;53.70;;;;;;5084433;28;20042;-37
2021/03/13 02:03:07;;;;;;;3.00;2.60;;;19.80;53.70;;;;;;5084270;28;20029;-37
2021/03/13 02:05:43;;;;;;;3.35;2.70;;;19.80;53.80;;;;;;5102224;28;20035;-37
2021/03/13 02:08:35;;;;;;;3.00;2.42;;;19.80;53.80;;;;;;5102479;28;20031;-37
2021/03/13 02:11:22;;;;;;;3.40;2.78;;;19.80;53.80;;;;;;5086332;28;20074;-37
2021/03/13 02:14:29;;;;;;;3.00;2.70;;;19.80;53.80;;;;;;5067633;28;20766;-37
2021/03/13 02:17:22;;;;;;;3.05;2.70;;;19.80;53.60;;;;;;5102498;28;20477;-37
2021/03/13 02:20:10;;;;;;;2.70;2.15;;;19.70;53.70;;;;;;5102417;28;20028;-37
2021/03/13 02:22:39;;;;;;;4.78;2.78;;;19.70;53.60;;;;;;5102272;28;20508;-38
2021/03/13 02:25:07;;;;;;;3.10;2.67;;;19.70;53.60;;;;;;5083992;28;20392;-37
2021/03/13 02:27:43;;;;;;;3.03;2.58;;;19.70;53.60;;;;;;5102481;28;20077;-37
2021/03/13 02:30:21;;;;;;;2.88;2.42;;;19.70;53.60;;;;;;5099400;28;20021;-38
2021/03/13 02:33:02;;;;;;;2.80;2.38;;;19.70;53.50;;;;;;5084383;28;20066;-37
2021/03/13 02:35:30;;;;;;;3.47;2.65;;;19.60;53.60;;;;;;5082063;28;20036;-37
2021/03/13 02:37:56;;;;;;;;;;;19.60;53.70;;;;;;5072216;28;20112;-37
2021/03/13 02:40:25;;;;;;;2.90;2.20;;;19.60;53.50;;;;;;5061675;28;19916;-37
2021/03/13 02:42:53;;;;;;;2.78;2.45;;;19.60;53.60;;;;;;5069241;28;20032;-37
2021/03/13 02:45:23;;;;;;;2.80;2.50;;;19.60;53.70;;;;;;5043964;28;20036;-37
2021/03/13 02:47:50;;;;;;;2.60;2.30;;;19.60;53.60;;;;;;5061959;28;20021;-37
2021/03/13 02:50:16;;;;;;;2.60;2.40;;;19.50;53.50;;;;;;5027779;28;20033;-36
2021/03/13 02:52:43;;;;;;;2.60;2.33;;;19.50;53.50;;;;;;5061693;28;20025;-36
2021/03/13 02:55:13;;;;;;;3.13;2.83;;;19.50;53.50;;;;;;5027361;28;20025;-36
2021/03/13 02:57:41;;;;;;;2.88;2.58;;;19.50;53.50;;;;;;5061769;28;20032;-37
2021/03/13 03:00:08;;;;;;;3.25;2.70;;;19.50;53.40;;;;;;5027337;28;20036;-37
2021/03/13 03:02:37;;;;;;;3.10;2.78;;;19.50;53.10;;;;;;5090140;28;20052;-37
2021/03/13 03:05:05;;;;;;;3.83;2.88;;;19.40;53.00;;;;;;5085195;28;20033;-38
2021/03/13 03:07:32;;;;;;;3.38;2.47;;;19.40;53.00;;;;;;5081414;28;20559;-37
2021/03/13 03:09:58;;;;;;;2.90;2.47;;;19.40;53.00;;;;;;5081521;28;20048;-37
2021/03/13 03:12:24;;;;;;;2.55;2.25;;;19.40;52.90;;;;;;5063739;28;20181;-37
2021/03/13 03:14:50;;;;;;;3.85;2.60;;;19.40;52.80;;;;;;5063756;28;20039;-38
2021/03/13 03:17:16;;;;;;;3.72;2.58;;;19.40;52.80;;;;;;5047077;28;20080;-37
2021/03/13 03:19:43;;;;;;;3.10;2.50;;;19.40;52.80;;;;;;5081548;28;20028;-37
2021/03/13 03:22:09;;;;;;;4.35;2.83;;;19.30;52.80;;;;;;5047097;28;20059;-37
2021/03/13 03:25:16;;;;;;;2.88;2.58;;;19.30;52.90;;;;;;5049178;28;20092;-37
2021/03/13 03:34:16;;;;;;;2.88;2.53;;;19.20;52.90;;;;;;5002601;28;20430;-37
2021/03/13 03:36:50;;;;;;;2.65;2.45;;;19.20;52.90;;;;;;4970209;28;20062;-37
2021/03/13 03:39:32;;;;;;;3.10;2.72;;;19.20;53.00;;;;;;5002782;28;20046;-36
2021/03/13 03:49:45;;;;;;;3.03;2.70;;;19.20;53.00;;;;;;4869153;29;20057;-37
2021/03/13 03:52:43;;;;;;;4.20;2.80;;;19.20;52.90;;;;;;4810031;29;20039;-36
2021/03/13 03:55:58;;;;;;;3.33;2.83;;;19.10;52.90;;;;;;4796055;30;20039;-37
2021/03/13 04:13:01;;;;;;;2.75;2.40;;;19.00;53.00;;;;;;4725464;30;19977;-37
2021/03/13 04:15:58;;;;;;;2.72;2.47;;;19.00;53.10;;;;;;4770851;30;20048;-36
2021/03/13 04:18:42;;;;;;;4.00;2.58;;;18.90;53.10;;;;;;4765034;30;20039;-36
2021/03/13 04:21:57;;;;;;;2.95;2.53;;;18.90;53.20;;;;;;4754731;30;20061;-37
2021/03/13 04:24:26;;;;;;;3.03;2.47;;;18.90;53.10;;;;;;4795204;30;20039;-36
2021/03/13 04:27:54;;;;;;;;;;;;;;;;;;;;;
2021/03/13 04:30:46;;;;;;;3.28;2.78;;;18.90;53.10;;;;;;4758886;30;20104;-37
2021/03/13 04:34:01;;;;;;;3.05;2.70;;;18.90;53.10;;;;;;4727156;30;20041;-38
2021/03/13 04:40:05;;;;;;;;;;;;;;;;;;;;;
2021/03/13 04:49:32;;;;;;;3.47;3.13;;;18.80;53.20;;;;;;4715757;30;20061;-37
2021/03/13 04:58:49;;;;;;;3.28;2.80;;;18.70;53.20;;;;;;4741794;30;20040;-36
2021/03/13 05:16:10;;;;;;;;;;;;;;;;;;;;;
2021/03/13 05:18:53;;;;;;;3.40;3.00;;;18.50;53.40;;;;;;4721046;30;20120;-41
2021/03/13 05:21:30;;;;;;;3.80;3.10;;;18.50;53.30;;;;;;4661600;30;20801;-37
2021/03/13 05:23:59;;;;;;;3.50;3.20;;;18.50;53.30;;;;;;4652278;30;20042;-37
2021/03/13 05:29:36;;;;;;;4.20;3.05;;;18.50;53.30;;;;;;4672123;30;20065;-36
2021/03/13 05:32:03;;;;;;;3.92;3.13;;;18.50;53.40;;;;;;4680120;30;20069;-36
2021/03/13 05:34:29;;;;;;;2.47;2.27;;;18.50;53.30;;;;;;4695667;30;20628;-36
2021/03/13 05:36:55;;;;;;;3.30;3.00;;;18.50;53.30;;;;;;4719833;30;20077;-36
2021/03/13 05:39:21;;;;;;;4.75;3.15;;;18.40;53.30;;;;;;4775371;30;20624;-37
2021/03/13 05:41:47;;;;;;;3.92;3.20;;;18.40;53.30;;;;;;4820207;29;20051;-36
2021/03/13 05:44:14;;;;;;;4.05;3.00;;;18.40;53.30;;;;;;4820903;29;20075;-37
2021/03/13 05:46:44;;;;;;;3.72;2.92;;;18.40;53.40;;;;;;4904549;29;20287;-36
2021/03/13 05:49:10;;;;;;;2.97;2.55;;;18.40;53.90;;;;;;4937601;29;20067;-36
2021/03/13 05:51:37;;;;;;;3.42;2.92;;;18.30;53.40;;;;;;4969078;28;20046;-37
2021/03/13 05:54:07;;;;;;;3.47;3.17;;;18.30;53.40;;;;;;4981085;28;20046;-37
2021/03/13 05:56:33;;;;;;;4.18;3.10;;;18.30;53.40;;;;;;4965566;28;20041;-37
2021/03/13 05:59:00;;;;;;;3.72;3.05;;;18.30;53.40;;;;;;4965146;28;20492;-36
2021/03/13 06:01:29;;;;;;;4.00;3.22;;;18.40;53.40;;;;;;4960301;28;20043;-37
2021/03/13 06:03:56;;;;;;;3.67;3.30;;;18.30;53.40;;;;;;4968731;28;20062;-36
2021/03/13 06:06:23;;;;;;;3.80;3.10;;;18.30;53.40;;;;;;5023146;28;20029;-37
2021/03/13 06:08:49;;;;;;;3.95;3.17;;;18.30;53.40;;;;;;5062447;28;20049;-37
2021/03/13 06:11:21;;;;;;;3.97;2.85;;;18.20;53.40;;;;;;5061990;28;20041;-36
2021/03/13 06:13:47;;;;;;;4.53;3.00;;;18.20;53.40;;;;;;5062299;28;20910;-37
2021/03/13 06:16:13;;;;;;;4.13;3.47;;;18.20;53.50;;;;;;5062307;28;20037;-37
2021/03/13 06:18:48;;;;;;;4.93;3.10;;;18.20;53.60;;;;;;5062345;28;20035;-36
2021/03/13 06:21:23;;;;;;;5.20;3.58;;;18.20;53.50;;;;;;5061851;28;20092;-37
2021/03/13 06:23:57;;;;;;;4.38;3.65;;;18.10;53.60;;;;;;5062398;28;20091;-37
2021/03/13 06:26:24;;;;;;;4.68;3.15;;;18.10;53.50;;;;;;5045372;28;20080;-37
2021/03/13 06:28:52;;;;;;;4.35;3.35;;;18.10;53.60;;;;;;5044447;28;20120;-37
2021/03/13 06:31:27;;;;;;;3.63;3.28;;;18.10;53.70;;;;;;5061901;28;20393;-37
2021/03/13 06:33:54;;;;;;;3.72;3.17;;;18.10;54.10;;;;;;5051060;28;20029;-37
2021/03/13 06:36:22;;;;;;;4.18;3.03;;;18.00;53.60;;;;;;5082330;28;20059;-37
2021/03/13 06:38:48;;;;;;;5.00;3.42;;;18.00;53.80;;;;;;5082289;28;20049;-37
2021/03/13 06:41:19;;;;;;;3.63;3.10;;;18.00;53.70;;;;;;5082037;28;20037;-36
2021/03/13 06:43:52;;;;;;;3.30;3.00;;;18.00;53.60;;;;;;5078290;28;20021;-37
2021/03/13 06:46:19;;;;;;;4.88;3.30;;;18.00;53.70;;;;;;5082301;28;20036;-37
2021/03/13 06:48:53;;;;;;;3.72;3.08;;;18.00;53.60;;;;;;5079845;28;20032;-37
2021/03/13 06:51:32;;;;;;;3.83;3.10;;;18.00;53.70;;;;;;5046862;28;20026;-37
2021/03/13 06:54:18;;;;;;;4.65;3.65;;;17.90;53.70;;;;;;5059947;28;20036;-37
2021/03/13 06:56:54;;;;;;;3.92;3.15;;;18.00;53.80;;;;;;5082122;28;20500;-36
2021/03/13 06:59:38;;;;;;;4.55;3.55;;;17.90;53.80;;;;;;5085457;28;20048;-37
2021/03/13 07:02:11;;;;;;;4.38;3.20;;;17.90;53.80;;;;;;5058088;28;20032;-36
2021/03/13 07:04:44;;;;;;;3.92;3.17;;;17.90;53.80;;;;;;5047759;28;20040;-37
2021/03/13 07:07:26;;;;;;;4.28;3.88;;;17.90;53.80;;;;;;5065712;28;20037;-37
2021/03/13 07:09:56;;;;;;;3.78;3.38;;;17.80;53.80;;;;;;5065571;28;20642;-36
2021/03/13 07:12:41;;;;;;;5.35;3.65;;;17.80;53.80;;;;;;5065322;28;20092;-37
2021/03/13 07:15:26;;;;;;;3.90;3.47;;;17.80;53.90;;;;;;5048213;28;20096;-37
2021/03/13 07:17:56;;;;;;;4.20;3.50;;;17.80;53.90;;;;;;5065563;28;20033;-37
2021/03/13 07:20:24;;;;;;;5.68;3.80;;;17.80;53.90;;;;;;5070456;28;20747;-37
2021/03/13 07:22:52;;;;;;;4.13;3.60;;;17.80;54.10;;;;;;5050760;28;20028;-36
2021/03/13 07:25:22;;;;;;;3.92;3.50;;;17.80;54.00;;;;;;5085345;28;20032;-37
2021/03/13 07:28:10;;;;;;;3.67;3.28;;;17.70;53.90;;;;;;5085446;28;20029;-37
2021/03/13 07:30:37;;;;;;;3.83;3.42;;;17.70;53.90;;;;;;5085546;28;20020;-36
2021/03/13 07:33:10;;;;;;;4.28;3.75;;;17.70;53.90;;;;;;5032699;28;20021;-36
2021/03/13 07:35:38;;;;;;;4.05;3.50;;;17.70;54.10;;;;;;5040790;28;20029;-36
2021/03/13 07:38:06;;;;;;;3.92;3.38;;;17.70;54.10;;;;;;5060777;28;20061;-36
2021/03/13 07:40:33;;;;;;;;;;;17.70;54.10;;;;;;5031330;28;20036;-36
2021/03/13 07:42:59;;;;;;;4.13;3.42;;;17.60;54.00;;;;;;5046933;28;19909;-36
2021/03/13 07:45:25;;;;;;;5.05;3.75;;;17.70;54.10;;;;;;5030670;28;20025;-37
2021/03/13 07:47:51;;;;;;;4.65;3.60;;;17.60;54.60;;;;;;5047299;28;20023;-37
2021/03/13 07:50:17;;;;;;;4.57;3.78;;;17.60;54.10;;;;;;5051603;28;20086;-37
2021/03/13 07:52:43;;;;;;;3.88;3.42;;;17.60;54.20;;;;;;5084972;28;20032;-37
2021/03/13 07:55:13;;;;;;;4.00;3.60;;;17.60;54.20;;;;;;5066933;28;20017;-37
2021/03/13 07:57:42;;;;;;;5.70;3.85;;;17.50;54.20;;;;;;5047086;28;20028;-37
2021/03/13 08:00:09;;;;;;;4.00;3.60;;;17.60;54.30;;;;;;5084907;28;20047;-37
2021/03/13 08:02:35;;;;;;;4.80;3.78;;;17.50;54.30;;;;;;5070423;28;20136;-37
2021/03/13 08:05:08;;;;;;;4.05;3.65;;;17.50;54.40;;;;;;5064818;28;20036;-37
2021/03/13 08:07:56;;;;;;;4.03;3.63;;;17.50;54.40;;;;;;5064920;28;20128;-37
2021/03/13 08:10:43;;;;;;;3.75;3.30;;;17.50;54.40;;;;;;5063626;28;20055;-37
2021/03/13 08:13:35;;;;;;;4.15;3.47;;;17.50;54.40;;;;;;5064455;28;20036;-37
2021/03/13 08:16:18;;;;;;;4.00;3.60;;;17.40;54.40;;;;;;5064477;28;20146;-37
2021/03/13 08:18:48;;;;;;;4.38;3.72;;;17.40;54.30;;;;;;5064775;28;20037;-37
2021/03/13 08:21:20;;;;;;;4.18;3.55;;;17.40;54.50;;;;;;5076661;28;20135;-37
2021/03/13 08:23:49;;;;;;;6.05;3.90;;;17.40;54.40;;;;;;5084277;28;20067;-37
2021/03/13 08:26:16;;;;;;;4.57;3.75;;;17.30;54.60;;;;;;5084649;28;20020;-37
2021/03/13 08:28:49;;;;;;;4.00;3.47;;;17.40;54.60;;;;;;5069374;28;20418;-37
2021/03/13 08:31:24;;;;;;;5.68;3.70;;;17.30;54.50;;;;;;5064136;28;20021;-37
2021/03/13 08:33:54;;;;;;;4.30;3.63;;;17.30;54.70;;;;;;5064008;28;20028;-37
2021/03/13 08:36:24;;;;;;;4.93;3.83;;;17.30;54.70;;;;;;5064200;28;20029;-37
2021/03/13 08:38:56;;;;;;;5.00;3.92;;;17.30;54.60;;;;;;5064189;28;20068;-37
2021/03/13 08:41:49;;;;;;;4.38;3.60;;;17.30;54.70;;;;;;5049556;28;20041;-37
2021/03/13 08:44:30;;;;;;;5.10;3.75;;;17.30;54.80;;;;;;5052877;28;20045;-37
2021/03/13 08:46:58;;;;;;;4.60;3.90;;;17.20;54.70;;;;;;5079320;28;20060;-37
2021/03/13 08:49:27;;;;;;;4.65;3.50;;;17.20;54.80;;;;;;5083413;28;20029;-37
2021/03/13 08:52:09;;;;;;;4.22;3.72;;;17.20;54.70;;;;;;5081317;28;20025;-37
2021/03/13 08:54:38;;;;;;;4.25;3.85;;;17.20;54.80;;;;;;5083600;28;20039;-37
2021/03/13 08:57:14;;;;;;;4.38;3.70;;;17.20;54.70;;;;;;5083864;28;20024;-37
2021/03/13 08:59:56;;;;;;;5.30;3.88;;;17.20;54.80;;;;;;5063519;28;20021;-37
2021/03/13 09:02:27;;;;;;;5.45;3.78;;;17.20;54.80;;;;;;5063489;28;20487;-37
2021/03/13 09:04:56;;;;;;;6.75;3.95;;;17.20;54.80;;;;;;5046209;28;20045;-37
2021/03/13 09:07:24;;;;;;;5.05;3.72;;;17.20;54.90;;;;;;5063851;28;20025;-37
2021/03/13 09:09:51;;;;;;;5.05;4.07;;;17.10;54.80;;;;;;5063592;28;20021;-37
2021/03/13 09:12:19;;;;;;;4.85;4.00;;;17.10;54.80;;;;;;5045578;28;20094;-37
2021/03/13 09:14:56;;;;;;;4.90;3.97;;;17.10;54.90;;;;;;5063051;28;20399;-38
2021/03/13 09:17:24;;;;;;;5.07;4.20;;;17.10;54.80;;;;;;5045723;28;20056;-37
2021/03/13 09:19:50;;;;;;;5.05;3.92;;;17.10;55.00;;;;;;5063393;28;20029;-37
2021/03/13 09:22:18;;;;;;;6.43;4.00;;;17.10;54.90;;;;;;5062441;28;20117;-37
2021/03/13 09:24:55;;;;;;;5.30;4.38;;;17.10;55.00;;;;;;5063106;28;20048;-37
2021/03/13 09:27:28;;;;;;;4.82;4.00;;;17.00;55.00;;;;;;5049120;28;20033;-37
2021/03/13 09:29:55;;;;;;;4.70;3.80;;;17.00;54.90;;;;;;5065120;28;20059;-37
2021/03/13 09:32:21;;;;;;;4.82;4.20;;;17.00;55.00;;;;;;5053005;28;20032;-36
2021/03/13 09:34:49;;;;;;;4.55;3.88;;;17.00;55.10;;;;;;5060270;28;20040;-37
2021/03/13 09:37:17;;;;;;;5.05;3.80;;;17.00;55.10;;;;;;5054332;28;20028;-37
2021/03/13 09:39:48;;;;;;;3.83;3.40;;;17.00;55.20;;;;;;5062967;28;20051;-37
2021/03/13 09:42:21;;;;;;;4.55;3.90;;;17.00;55.10;;;;;;5063132;28;20032;-37
2021/03/13 09:44:54;;;;;;;4.65;4.10;;;17.00;55.10;;;;;;5062676;28;20064;-37
2021/03/13 09:47:30;;;;;;;5.13;3.90;;;16.90;55.10;;;;;;5063169;28;20394;-37
2021/03/13 09:49:57;;;;;;;4.18;3.72;;;16.90;55.10;;;;;;5063071;28;20029;-37
2021/03/13 09:52:31;;;;;;;3.85;3.45;;;16.90;55.10;;;;;;5045013;28;20025;-36
2021/03/13 09:55:11;;;;;;;4.05;3.33;;;16.90;55.20;;;;;;5062650;28;20044;-37
2021/03/13 09:57:40;;;;;;;6.00;3.78;;;16.90;55.10;;;;;;5067515;28;20044;-37
2021/03/13 10:00:17;;;;;;;3.97;3.58;;;16.90;55.20;;;;;;5082694;28;20059;-36
2021/03/13 10:02:43;;;;;;;5.05;4.00;;;16.90;55.20;;;;;;5067570;28;20032;-37
2021/03/13 10:05:14;;;;;;;5.10;3.78;;;16.90;55.20;;;;;;5062434;28;20029;-37
2021/03/13 10:07:44;;;;;;;5.72;3.58;;;16.80;55.20;;;;;;5065270;28;20084;-37
2021/03/13 10:10:12;;;;;;;4.82;4.05;;;16.80;55.20;;;;;;5062748;28;20047;-37
2021/03/13 10:12:42;;;;;;;6.60;3.83;;;16.80;55.30;;;;;;5044372;28;20040;-37
2021/03/13 10:15:13;;;;;;;4.38;3.97;;;16.80;55.20;;;;;;5062329;28;20033;-37
2021/03/13 10:17:58;;;;;;;4.32;3.85;;;16.80;55.20;;;;;;5062798;28;20057;-37
2021/03/13 10:21:00;;;;;;;4.68;3.80;;;16.80;55.30;;;;;;5062535;28;20084;-36
2021/03/13 10:23:35;;;;;;;4.22;3.70;;;16.80;55.30;;;;;;4961942;29;20076;-37
2021/03/13 10:26:08;;;;;;;5.10;3.50;;;16.80;55.30;;;;;;4961592;29;20080;-37
2021/03/13 10:28:38;;;;;;;5.78;4.25;;;16.70;55.40;;;;;;4961746;29;20038;-36
2021/03/13 10:31:07;;;;;;;4.43;3.92;;;16.70;55.40;;;;;;4960052;29;20035;-37
2021/03/13 10:33:34;;;;;;;4.40;3.50;;;16.70;55.40;;;;;;4944942;29;20043;-37
2021/03/13 10:36:00;;;;;;;5.60;4.20;;;16.70;55.40;;;;;;4946102;29;20035;-37
2021/03/13 10:38:26;;;;;;;4.82;4.00;;;16.70;55.90;;;;;;4946529;29;20039;-36
2021/03/13 10:40:55;;;;;;;5.10;4.13;;;16.70;55.50;;;;;;4946165;29;20063;-37
2021/03/13 10:43:30;;;;;;;5.57;4.35;;;16.70;55.40;;;;;;4946337;29;20051;-37
2021/03/13 10:45:57;;;;;;;6.05;4.32;;;16.70;55.50;;;;;;4946064;29;20063;-37
2021/03/13 10:48:43;;;;;;;4.82;4.00;;;16.60;55.60;;;;;;4954954;29;20882;-37
2021/03/13 10:51:31;;;;;;;4.43;4.00;;;16.60;55.50;;;;;;4958237;29;20046;-37
2021/03/13 10:53:59;;;;;;;4.78;3.75;;;16.60;55.50;;;;;;4965746;29;20034;-36
2021/03/13 10:56:40;;;;;;;7.55;4.03;;;16.60;55.60;;;;;;4965044;29;20885;-37
2021/03/13 10:59:06;;;;;;;5.35;3.83;;;16.60;55.60;;;;;;4993204;28;20569;-37
2021/03/13 11:01:33;;;;;;;5.78;4.15;;;16.60;55.50;;;;;;5013894;28;20068;-37
2021/03/13 11:03:59;;;;;;;4.57;3.95;;;16.60;55.50;;;;;;5046228;28;20569;-37
2021/03/13 11:06:30;;;;;;;5.20;4.10;;;16.60;55.60;;;;;;5045823;28;20056;-41
2021/03/13 11:08:58;;;;;;;5.28;4.00;;;16.50;55.60;;;;;;5046232;28;20029;-39
2021/03/13 11:11:24;;;;;;;5.63;4.20;;;16.50;55.60;;;;;;5054324;28;20052;-37
2021/03/13 11:13:50;;;;;;;4.60;3.88;;;16.50;55.60;;;;;;5066024;28;20025;-36
2021/03/13 11:16:16;;;;;;;7.43;4.10;;;16.50;55.60;;;;;;5065698;28;20099;-36
2021/03/13 11:18:43;;;;;;;5.22;4.05;;;16.50;55.60;;;;;;5065787;28;20041;-37
2021/03/13 11:21:09;;;;;;;5.45;3.97;;;16.50;55.60;;;;;;5065837;28;20096;-37
2021/03/13 11:23:35;;;;;;;5.32;4.38;;;16.50;55.60;;;;;;5065832;28;20021;-37
2021/03/13 11:26:01;;;;;;;5.43;4.18;;;16.50;55.60;;;;;;5065518;28;20024;-37
2021/03/13 11:28:28;;;;;;;5.20;4.40;;;16.50;55.60;;;;;;5077178;28;20058;-36
2021/03/13 11:30:54;;;;;;;4.93;3.90;;;16.50;55.50;;;;;;5067217;28;20429;-37
2021/03/13 11:33:20;;;;;;;4.97;4.00;;;16.50;55.60;;;;;;5065574;28;20051;-37
2021/03/13 11:35:46;;;;;;;5.25;4.00;;;16.50;55.60;;;;;;5056133;28;20052;-36
2021/03/13 11:38:12;;;;;;;5.30;4.38;;;16.40;55.60;;;;;;5062884;28;20056;-36
2021/03/13 11:40:40;;;;;;;5.28;4.35;;;16.40;55.60;;;;;;5065262;28;20032;-37
2021/03/13 11:43:06;;;;;;;5.78;4.25;;;16.40;55.70;;;;;;5047638;28;20040;-37
2021/03/13 11:45:32;;;;;;;5.45;4.15;;;16.40;55.70;;;;;;5064035;28;20037;-36
2021/03/13 11:47:58;;;;;;;5.60;4.28;;;16.40;56.30;;;;;;5065343;28;20029;-37
2021/03/13 11:50:25;;;;;;;6.03;3.95;;;16.30;56.40;;;;;;5065487;28;20025;-36
2021/03/13 11:52:54;;;;;;;4.45;3.85;;;16.30;55.70;;;;;;5065222;28;20045;-36
2021/03/13 11:55:21;;;;;;;6.65;4.15;;;16.40;55.80;;;;;;5064981;28;20493;-37
2021/03/13 11:57:47;;;;;;;5.75;4.07;;;16.30;55.70;;;;;;5071135;28;20032;-36
2021/03/13 12:00:13;;;;;;;5.13;4.22;;;16.30;55.70;;;;;;5084701;28;20040;-36
2021/03/13 12:02:40;;;;;;;4.80;3.78;;;16.30;55.80;;;;;;5067025;28;20016;-36
2021/03/13 12:05:06;;;;;;;5.00;3.97;;;16.30;55.80;;;;;;5085104;28;20120;-36
2021/03/13 12:07:33;;;;;;;4.65;3.85;;;16.30;55.80;;;;;;5066630;28;20028;-36
2021/03/13 12:09:59;;;;;;;5.45;4.32;;;16.30;55.90;;;;;;5085033;28;20063;-36
2021/03/13 12:12:25;;;;;;;4.70;4.03;;;16.30;55.90;;;;;;5066690;28;20041;-36
2021/03/13 12:14:52;;;;;;;5.55;4.30;;;16.20;55.80;;;;;;5064529;28;20032;-36
2021/03/13 12:17:18;;;;;;;4.78;4.03;;;16.20;55.80;;;;;;5084427;28;20382;-36
2021/03/13 12:19:45;;;;;;;4.20;3.80;;;16.20;55.80;;;;;;5084616;28;20052;-36
2021/03/13 12:22:11;;;;;;;6.22;4.60;;;16.20;55.80;;;;;;5066726;28;20144;-36
2021/03/13 12:24:37;;;;;;;4.57;4.13;;;16.20;55.80;;;;;;5084738;28;20043;-36
2021/03/13 12:27:04;;;;;;;4.72;3.80;;;16.20;55.80;;;;;;5084174;28;20117;-36
2021/03/13 12:29:30;;;;;;;5.63;4.13;;;16.20;55.70;;;;;;5064499;28;20068;-36
2021/03/13 12:31:56;;;;;;;6.57;4.10;;;16.20;55.70;;;;;;5046446;28;20281;-36
2021/03/13 12:34:22;;;;;;;5.05;4.25;;;16.20;55.80;;;;;;5064506;28;20047;-36
2021/03/13 12:36:49;;;;;;;4.28;3.88;;;16.20;55.90;;;;;;5063793;28;20029;-36
2021/03/13 12:39:18;;;;;;;4.88;4.38;;;16.20;55.80;;;;;;5054031;28;20021;-36
2021/03/13 12:41:45;;;;;;;4.97;4.10;;;16.20;55.90;;;;;;5044073;28;20041;-36
2021/03/13 12:44:11;;;;;;;6.23;4.23;;;16.10;55.80;;;;;;5050220;28;20025;-36
2021/03/13 12:46:38;;;;;;;4.50;4.10;;;16.10;55.90;;;;;;5063318;28;20272;-36
2021/03/13 12:49:04;;;;;;;5.55;4.45;;;16.10;55.90;;;;;;5046169;28;20305;-36
2021/03/13 12:51:30;;;;;;;5.22;4.00;;;16.10;55.90;;;;;;5063491;28;20371;-36
2021/03/13 12:53:56;;;;;;;5.00;4.40;;;16.10;56.00;;;;;;5063963;28;20060;-37
2021/03/13 12:56:22;;;;;;;5.03;4.00;;;16.10;56.00;;;;;;5063763;28;20032;-36
2021/03/13 12:58:48;;;;;;;5.78;4.13;;;16.10;55.90;;;;;;5063686;28;20079;-36
2021/03/13 13:01:15;;;;;;;5.43;4.25;;;16.10;55.90;;;;;;5063296;28;20033;-36
2021/03/13 13:03:41;;;;;;;5.50;4.18;;;16.10;55.90;;;;;;5063761;28;20039;-36
2021/03/13 13:06:07;;;;;;;5.20;4.20;;;16.10;55.90;;;;;;5063666;28;20088;-36
2021/03/13 13:08:33;;;;;;;4.75;4.22;;;16.10;55.80;;;;;;5063645;28;20044;-36
2021/03/13 13:10:59;;;;;;;5.35;4.20;;;16.00;56.00;;;;;;5063467;28;20048;-37
2021/03/13 13:13:26;;;;;;;5.20;4.10;;;16.00;56.00;;;;;;5063044;28;20048;-36
2021/03/13 13:15:52;;;;;;;5.75;3.97;;;16.00;55.80;;;;;;5045531;28;20028;-36
2021/03/13 13:18:23;;;;;;;5.35;4.55;;;16.10;55.90;;;;;;5063656;28;20017;-36
2021/03/13 13:20:49;;;;;;;4.28;3.83;;;16.00;55.90;;;;;;5063497;28;20048;-36
2021/03/13 13:23:15;;;;;;;6.53;4.15;;;16.10;55.90;;;;;;5063041;28;20017;-36
2021/03/13 13:25:42;;;;;;;5.07;4.03;;;16.00;55.80;;;;;;5063521;28;20025;-36
2021/03/13 13:28:09;;;;;;;4.53;3.28;;;16.00;55.90;;;;;;5071967;28;20099;-36
2021/03/13 13:30:35;;;;;;;5.10;3.85;;;16.00;56.00;;;;;;5065079;28;20040;-36
2021/03/13 13:33:03;;;;;;;5.47;4.35;;;16.00;55.90;;;;;;5065103;28;20522;-36
2021/03/13 13:35:29;;;;;;;5.90;4.70;;;16.00;55.90;;;;;;5052663;28;20034;-37
2021/03/13 13:37:55;;;;;;;4.68;3.92;;;16.00;55.90;;;;;;5045295;28;20021;-37
2021/03/13 13:40:23;;;;;;;5.43;3.88;;;16.00;55.90;;;;;;5062938;28;20071;-36
2021/03/13 13:42:48;;;;;;;;;;;16.00;55.90;;;;;;5063031;28;20509;-36
2021/03/13 13:45:15;;;;;;;4.45;4.03;;;16.00;55.90;;;;;;5062932;28;19931;-36
2021/03/13 13:47:45;;;;;;;4.82;4.05;;;16.00;55.90;;;;;;5062986;28;20024;-37
2021/03/13 13:50:14;;;;;;;4.97;3.78;;;16.00;55.80;;;;;;5062908;28;20037;-36
2021/03/13 13:52:40;;;;;;;5.18;4.00;;;16.00;56.30;;;;;;5062645;28;20028;-36
2021/03/13 13:55:11;;;;;;;5.35;4.10;;;16.00;55.70;;;;;;5044832;28;20075;-44
2021/03/13 13:57:37;;;;;;;7.07;4.43;;;16.00;55.60;;;;;;5066146;28;20059;-36
2021/03/13 14:00:14;;;;;;;4.60;4.03;;;16.00;55.60;;;;;;5082660;28;20024;-36
2021/03/13 14:02:40;;;;;;;4.57;4.00;;;16.00;55.70;;;;;;5066677;28;20037;-36
2021/03/13 14:05:07;;;;;;;4.85;4.28;;;16.00;55.60;;;;;;5062670;28;20100;-36
2021/03/13 14:07:34;;;;;;;5.53;3.80;;;16.00;55.60;;;;;;5062089;28;20370;-37
2021/03/13 14:10:00;;;;;;;5.18;3.85;;;16.00;55.60;;;;;;5062380;28;20112;-36
2021/03/13 14:12:26;;;;;;;5.20;4.18;;;16.00;55.50;;;;;;5062070;28;20569;-36